LFGJ/DLE METAR and TAF weather

Enter ICAO airport designator
Station Type Date Time Source
LFGJ METAR 2019/12/08 03:30 UTC NOAA

LFGJ 080330Z AUTO 19010KT 9999 FEW030 OVC042 09/07 Q1018


Station Type Date Time Source
LFGJ Decoded METAR 2019/12/08 03:30 UTC NOAA

Dole Tavaux, France (LFGJ) 47-02-34N 005-26-06E
Dec 07, 2019 - 10:30 PM EST / 2019.12.08 0330 UTC
Wind: from the S (190 degrees) at 12 MPH (10 KT):0
Visibility: greater than 7 mile(s):0
Sky conditions: overcast
Temperature: 48 F (9 C)
Dew Point: 44 F (7 C)
Relative Humidity: 87%
Pressure (altimeter): 30.06 in. Hg (1018 hPa)
ob: LFGJ 080330Z AUTO 19010KT 9999 FEW030 OVC042 09/07 Q1018
cycle: 3

Station Type Date Time Source
LFGJ TAF 2012/05/01 21:57 UTC NOAA

TAF
AMD TAF
AMD LFGJ 010355Z 3021/0106 18008KT 9999 FEW023 SCT035 BKN050
TEMPO 0102/0103 4000 -SHRA BR FEW012TCU BKN015
BECMG 0103/0104 VRB03KT 0200 FG VV///

Example: see airport list